createdAt,value
2018-11-03T00:00:46.462Z,89.82
2018-11-03T00:03:13.410Z,89.38
2018-11-03T00:05:40.377Z,88.98
2018-11-03T00:08:07.333Z,89.91
2018-11-03T00:10:34.274Z,90.87
2018-11-03T00:13:01.198Z,91.23
2018-11-03T00:15:28.142Z,90.80
2018-11-03T00:17:55.087Z,90.95
2018-11-03T00:20:22.140Z,91.14
2018-11-03T00:22:49.079Z,90.93
2018-11-03T00:25:16.016Z,90.20
2018-11-03T00:27:42.949Z,89.89
2018-11-03T00:30:11.661Z,89.70
2018-11-03T00:32:38.591Z,89.69
2018-11-03T00:35:05.542Z,89.34
2018-11-03T00:37:32.598Z,89.64
2018-11-03T00:39:59.547Z,89.98
2018-11-03T00:42:26.691Z,89.80
2018-11-03T00:44:53.664Z,89.48
2018-11-03T00:47:20.595Z,90.26
2018-11-03T00:49:47.530Z,89.52
2018-11-03T00:52:14.469Z,90.37
2018-11-03T00:54:41.397Z,90.11
2018-11-03T00:57:08.377Z,91.56
2018-11-03T00:59:35.329Z,91.74
2018-11-03T01:02:02.312Z,90.94
2018-11-03T01:04:29.247Z,91.20
2018-11-03T01:06:56.350Z,90.90
2018-11-03T01:09:23.521Z,91.31
2018-11-03T01:11:50.456Z,91.63
2018-11-03T01:14:17.417Z,90.96
2018-11-03T01:16:44.348Z,90.68
2018-11-03T01:19:11.304Z,90.38
2018-11-03T01:21:38.230Z,90.24
2018-11-03T01:24:05.420Z,91.12
2018-11-03T01:26:32.366Z,89.92
2018-11-03T01:28:59.289Z,90.83
2018-11-03T01:31:26.266Z,90.41
2018-11-03T01:33:53.185Z,89.72
2018-11-03T01:36:20.130Z,90.21
2018-11-03T01:38:47.046Z,90.50
2018-11-03T01:41:13.968Z,90.28
2018-11-03T01:43:40.906Z,90.57
2018-11-03T01:46:07.836Z,90.15
2018-11-03T01:48:34.774Z,89.60
2018-11-03T01:51:01.686Z,90.14
2018-11-03T01:53:28.617Z,91.04
2018-11-03T01:55:55.553Z,89.84
2018-11-03T01:58:22.484Z,90.80
2018-11-03T02:00:49.409Z,90.77
2018-11-03T02:03:16.337Z,90.81
2018-11-03T02:05:43.282Z,90.21
2018-11-03T02:08:10.208Z,90.64
2018-11-03T02:10:37.150Z,91.25
2018-11-03T02:13:04.102Z,91.92
2018-11-03T02:15:31.042Z,92.05
2018-11-03T02:17:57.960Z,91.09
2018-11-03T02:20:24.884Z,91.61
2018-11-03T02:22:51.839Z,92.14
2018-11-03T02:25:18.772Z,92.20
2018-11-03T02:27:45.702Z,91.67
2018-11-03T02:30:12.633Z,92.25
2018-11-03T02:32:39.728Z,91.46
2018-11-03T02:35:07.688Z,92.00
2018-11-03T02:37:34.613Z,92.26
2018-11-03T02:40:01.629Z,92.31
2018-11-03T02:42:28.575Z,92.50
2018-11-03T02:44:55.488Z,92.55
2018-11-03T02:47:22.433Z,92.52
2018-11-03T02:49:49.364Z,93.62
2018-11-03T02:52:16.282Z,93.36
2018-11-03T02:54:43.214Z,93.92
2018-11-03T02:57:10.159Z,93.54
2018-11-03T02:59:37.090Z,93.20
2018-11-03T03:02:04.374Z,93.30
2018-11-03T03:04:31.270Z,92.32
2018-11-03T03:06:58.218Z,92.20
2018-11-03T03:09:25.237Z,91.91
2018-11-03T03:11:52.169Z,91.83
2018-11-03T03:14:19.081Z,91.73
2018-11-03T03:16:46.018Z,91.61
2018-11-03T03:19:13.398Z,91.43
2018-11-03T03:21:40.343Z,92.62
2018-11-03T03:24:07.265Z,92.07
2018-11-03T03:26:34.193Z,92.29
2018-11-03T03:29:01.176Z,91.81
2018-11-03T03:31:28.047Z,92.12
2018-11-03T03:33:54.987Z,92.43
2018-11-03T03:36:21.941Z,91.48
2018-11-03T03:38:48.869Z,92.03
2018-11-03T03:41:15.787Z,91.20
2018-11-03T03:43:42.821Z,92.84
2018-11-03T03:46:09.741Z,92.55
2018-11-03T03:48:36.683Z,92.38
2018-11-03T03:51:03.616Z,92.50
2018-11-03T03:53:30.543Z,92.53
2018-11-03T03:55:57.472Z,91.51
2018-11-03T03:58:24.466Z,92.24
2018-11-03T04:00:51.406Z,93.12
2018-11-03T04:03:18.356Z,92.81
2018-11-03T04:05:45.338Z,92.12
2018-11-03T04:08:12.307Z,92.17
2018-11-03T04:10:39.234Z,93.33
2018-11-03T04:13:12.841Z,93.37
2018-11-03T04:15:39.777Z,93.21
2018-11-03T04:18:06.698Z,92.45
2018-11-03T04:20:33.631Z,92.83
2018-11-03T04:23:00.590Z,92.69
2018-11-03T04:25:27.510Z,92.38
2018-11-03T04:27:54.449Z,92.77
2018-11-03T04:30:21.370Z,93.75
2018-11-03T04:32:48.294Z,93.45
2018-11-03T04:35:15.222Z,92.88
2018-11-03T04:37:42.159Z,93.80
2018-11-03T04:40:10.708Z,92.91
2018-11-03T04:42:37.869Z,93.45
2018-11-03T04:45:05.577Z,92.82
2018-11-03T04:47:32.498Z,93.62
2018-11-03T04:49:59.431Z,93.06
2018-11-03T04:52:26.352Z,93.51
2018-11-03T04:54:53.338Z,92.79
2018-11-03T04:57:20.216Z,92.82
2018-11-03T04:59:47.181Z,93.47
2018-11-03T05:02:14.486Z,93.33
2018-11-03T05:04:41.442Z,94.48
2018-11-03T05:07:08.345Z,93.84
2018-11-03T05:09:35.240Z,93.87
2018-11-03T05:12:02.157Z,94.09
2018-11-03T05:14:29.200Z,94.66
2018-11-03T05:16:56.133Z,94.42
2018-11-03T05:19:23.056Z,93.53
2018-11-03T05:21:49.957Z,94.58
2018-11-03T05:24:16.868Z,94.11
2018-11-03T05:26:43.808Z,93.82
2018-11-03T05:29:10.736Z,93.99
2018-11-03T05:31:44.627Z,94.56
2018-11-03T05:34:11.598Z,94.84
2018-11-03T05:36:38.492Z,93.54
2018-11-03T05:39:07.379Z,94.50
2018-11-03T05:41:34.297Z,93.43
2018-11-03T05:44:01.206Z,94.24
2018-11-03T05:46:28.193Z,93.72
2018-11-03T05:48:55.114Z,94.56
2018-11-03T05:51:22.041Z,94.36
2018-11-03T05:53:48.960Z,94.22
2018-11-03T05:56:15.885Z,94.75
2018-11-03T06:01:16.394Z,94.13
2018-11-03T06:03:43.282Z,94.01
2018-11-03T06:06:10.232Z,93.89
2018-11-03T06:08:37.157Z,93.21
2018-11-03T06:11:04.553Z,93.33
2018-11-03T06:13:31.461Z,93.18
2018-11-03T06:15:58.442Z,93.92
2018-11-03T06:18:25.339Z,92.80
2018-11-03T06:20:52.248Z,93.59
2018-11-03T06:23:19.231Z,93.03
2018-11-03T06:25:46.101Z,93.01
2018-11-03T06:28:13.134Z,93.38
2018-11-03T06:30:39.976Z,92.98
2018-11-03T06:33:06.880Z,93.57
2018-11-03T06:35:33.801Z,94.05
2018-11-03T06:38:00.692Z,93.19
2018-11-03T06:40:27.607Z,93.80
2018-11-03T06:42:54.515Z,93.35
2018-11-03T06:45:21.424Z,93.61
2018-11-03T06:47:48.720Z,93.41
2018-11-03T06:50:15.629Z,93.93
2018-11-03T06:52:42.544Z,93.74
2018-11-03T06:55:09.517Z,93.41
2018-11-03T06:57:36.448Z,94.01
2018-11-03T07:00:04.630Z,93.45
2018-11-03T07:02:31.540Z,94.08
2018-11-03T07:04:58.463Z,94.32
2018-11-03T07:07:25.374Z,94.22
2018-11-03T07:09:52.268Z,93.67
2018-11-03T07:12:19.303Z,94.16
2018-11-03T07:14:46.148Z,93.93
2018-11-03T07:17:13.098Z,94.05
2018-11-03T07:19:40.000Z,94.00
2018-11-03T07:22:06.922Z,93.71
2018-11-03T07:24:33.836Z,94.42
2018-11-03T07:27:00.749Z,93.88
2018-11-03T07:29:27.698Z,94.06
2018-11-03T07:31:54.627Z,93.89
2018-11-03T07:34:21.534Z,93.80
2018-11-03T07:36:48.466Z,93.80
2018-11-03T07:39:15.396Z,94.71
2018-11-03T07:41:42.441Z,94.45
2018-11-03T07:44:09.519Z,94.58
2018-11-03T07:46:36.454Z,94.30
2018-11-03T07:49:03.573Z,94.09
2018-11-03T07:51:30.325Z,94.10
2018-11-03T07:53:57.282Z,93.37
2018-11-03T07:56:24.204Z,94.08
2018-11-03T07:58:51.108Z,93.32
2018-11-03T08:01:18.054Z,94.27
2018-11-03T08:03:44.946Z,94.29
2018-11-03T08:06:11.892Z,94.22
2018-11-03T08:08:38.811Z,93.55
2018-11-03T08:11:05.701Z,94.02
2018-11-03T08:13:32.622Z,93.64
2018-11-03T08:15:59.529Z,93.62
2018-11-03T08:18:26.472Z,93.60
2018-11-03T08:20:53.448Z,93.31
2018-11-03T08:23:20.438Z,93.12
2018-11-03T08:25:47.434Z,93.95
2018-11-03T08:28:14.345Z,93.05
2018-11-03T08:30:41.255Z,93.49
2018-11-03T08:33:08.181Z,94.11
2018-11-03T08:35:35.100Z,93.94
2018-11-03T08:38:02.024Z,93.84
2018-11-03T08:40:28.967Z,93.47
2018-11-03T08:42:55.878Z,93.26
2018-11-03T08:45:22.836Z,93.11
2018-11-03T08:47:49.739Z,93.69
2018-11-03T08:50:16.714Z,93.49
2018-11-03T08:52:43.632Z,93.26
2018-11-03T08:55:11.816Z,92.04
2018-11-03T08:57:38.742Z,93.01
2018-11-03T09:00:09.283Z,92.99
2018-11-03T09:02:36.117Z,92.30
2018-11-03T09:05:03.060Z,92.87
2018-11-03T09:07:29.976Z,91.74
2018-11-03T09:09:56.940Z,92.11
2018-11-03T09:12:23.864Z,91.52
2018-11-03T09:14:50.802Z,91.59
2018-11-03T09:17:17.727Z,91.46
2018-11-03T09:19:44.682Z,90.90
2018-11-03T09:22:11.600Z,89.75
2018-11-03T09:24:38.784Z,89.90
2018-11-03T09:27:05.676Z,89.86
2018-11-03T09:29:32.592Z,89.63
2018-11-03T09:32:00.009Z,89.43
2018-11-03T09:34:26.907Z,88.34
2018-11-03T09:36:54.031Z,89.03
2018-11-03T09:39:21.018Z,88.76
2018-11-03T09:41:47.953Z,87.43
2018-11-03T09:44:14.916Z,87.72
2018-11-03T09:46:48.616Z,87.59
2018-11-03T09:49:16.591Z,87.48
2018-11-03T09:51:44.921Z,86.13
2018-11-03T09:54:11.973Z,85.36
2018-11-03T09:56:39.030Z,85.38
2018-11-03T09:59:05.848Z,86.58
2018-11-03T10:01:33.961Z,85.13
2018-11-03T10:04:00.879Z,85.98
2018-11-03T10:06:27.840Z,83.67
2018-11-03T10:08:54.826Z,83.75
2018-11-03T10:11:23.536Z,84.19
2018-11-03T10:13:50.456Z,84.30
2018-11-03T10:16:17.440Z,83.09
2018-11-03T10:18:44.384Z,82.54
2018-11-03T10:21:11.326Z,81.52
2018-11-03T10:23:38.234Z,78.79
2018-11-03T10:26:05.186Z,80.27
2018-11-03T10:28:32.159Z,78.88
2018-11-03T10:30:59.132Z,78.93
2018-11-03T10:33:26.164Z,78.79
2018-11-03T10:35:53.075Z,78.76
2018-11-03T10:38:20.011Z,76.71
2018-11-03T10:40:46.931Z,76.16
2018-11-03T10:43:14.434Z,76.11
2018-11-03T10:45:41.397Z,76.73
2018-11-03T10:48:08.529Z,73.98
2018-11-03T10:50:35.798Z,74.09
2018-11-03T10:53:02.781Z,74.06
2018-11-03T10:55:29.854Z,75.48
2018-11-03T10:57:56.841Z,74.41
2018-11-03T11:00:29.605Z,74.66
2018-11-03T11:03:02.251Z,73.84
2018-11-03T11:05:35.243Z,73.37
2018-11-03T11:08:07.997Z,72.87
2018-11-03T11:10:40.728Z,73.40
2018-11-03T11:13:11.032Z,73.57
2018-11-03T11:15:37.958Z,73.41
2018-11-03T11:18:05.173Z,72.27
2018-11-03T11:20:32.076Z,73.27
2018-11-03T11:22:58.988Z,71.90
2018-11-03T11:25:25.927Z,70.26
2018-11-03T11:27:52.852Z,70.00
2018-11-03T11:30:19.770Z,69.97
2018-11-03T11:32:46.793Z,70.72
2018-11-03T11:35:13.705Z,69.76
2018-11-03T11:37:40.733Z,69.95
2018-11-03T11:40:07.609Z,70.57
2018-11-03T11:42:34.512Z,69.05
2018-11-03T11:45:01.442Z,68.87
2018-11-03T11:47:28.424Z,68.13
2018-11-03T11:49:55.369Z,68.33
2018-11-03T11:52:22.355Z,68.46
2018-11-03T11:54:49.322Z,67.30
2018-11-03T11:57:16.194Z,66.20
2018-11-03T11:59:43.132Z,67.39
2018-11-03T12:02:10.236Z,68.70
2018-11-03T12:04:37.096Z,66.65
2018-11-03T12:07:04.067Z,66.32
2018-11-03T12:09:30.997Z,65.81
2018-11-03T12:11:57.929Z,65.57
2018-11-03T12:14:24.841Z,66.54
2018-11-03T12:16:51.809Z,66.65
2018-11-03T12:19:18.746Z,66.83
2018-11-03T12:21:45.641Z,65.49
2018-11-03T12:24:12.545Z,66.00
2018-11-03T12:26:39.489Z,66.56
2018-11-03T12:29:06.379Z,67.05
2018-11-03T12:34:07.021Z,65.37
2018-11-03T12:36:33.945Z,65.71
2018-11-03T12:39:00.885Z,65.73
2018-11-03T12:41:28.022Z,65.40
2018-11-03T12:43:54.776Z,64.29
2018-11-03T12:46:21.695Z,64.23
2018-11-03T12:48:48.643Z,65.07
2018-11-03T12:51:15.576Z,64.64
2018-11-03T12:53:42.505Z,64.77
2018-11-03T12:56:09.376Z,64.71
2018-11-03T12:58:36.294Z,64.78
2018-11-03T13:01:03.204Z,64.36
2018-11-03T13:03:30.106Z,64.97
2018-11-03T13:05:57.000Z,65.63
2018-11-03T13:08:23.962Z,65.07
2018-11-03T13:10:50.964Z,63.77
2018-11-03T13:13:17.901Z,64.60
2018-11-03T13:15:44.833Z,64.72
2018-11-03T13:18:11.709Z,66.15
2018-11-03T13:20:38.637Z,65.25
2018-11-03T13:23:05.546Z,65.49
2018-11-03T13:25:32.432Z,66.08
2018-11-03T13:27:59.354Z,66.71
2018-11-03T13:30:26.254Z,66.39
2018-11-03T13:32:53.157Z,66.91
2018-11-03T13:35:20.073Z,66.47
2018-11-03T13:37:47.226Z,67.20
2018-11-03T13:40:14.164Z,67.46
2018-11-03T13:42:41.486Z,67.67
2018-11-03T13:45:09.016Z,66.95
2018-11-03T13:47:36.821Z,67.14
2018-11-03T13:50:09.183Z,66.68
2018-11-03T13:52:36.124Z,65.99
2018-11-03T13:55:03.097Z,65.83
2018-11-03T13:57:29.989Z,66.49
2018-11-03T13:59:56.918Z,65.12
2018-11-03T14:02:23.833Z,67.03
2018-11-03T14:04:50.764Z,67.28
2018-11-03T14:07:17.676Z,66.37
2018-11-03T14:09:44.729Z,67.73
2018-11-03T14:12:11.634Z,66.98
2018-11-03T14:14:38.573Z,66.66
2018-11-03T14:17:05.622Z,67.11
2018-11-03T14:19:32.453Z,67.55
2018-11-03T14:21:59.426Z,66.79
2018-11-03T14:24:26.365Z,67.95
2018-11-03T14:26:53.317Z,68.76
2018-11-03T14:29:20.311Z,68.32
2018-11-03T14:31:47.164Z,68.45
2018-11-03T14:34:14.089Z,67.87
2018-11-03T14:36:41.013Z,67.98
2018-11-03T14:39:08.685Z,68.12
2018-11-03T14:41:35.671Z,68.51
2018-11-03T14:44:02.665Z,68.97
2018-11-03T14:46:29.624Z,69.19
2018-11-03T14:48:56.542Z,69.01
2018-11-03T14:51:23.501Z,69.85
2018-11-03T14:53:50.420Z,69.50
2018-11-03T14:56:17.318Z,69.27
2018-11-03T14:58:44.225Z,68.58
2018-11-03T15:01:11.137Z,69.02
2018-11-03T15:03:38.059Z,68.81
2018-11-03T15:06:05.027Z,69.13
2018-11-03T15:08:32.038Z,69.06
2018-11-03T15:10:58.931Z,70.79
2018-11-03T15:13:25.943Z,70.40
2018-11-03T15:15:52.799Z,70.63
2018-11-03T15:18:19.751Z,70.42
2018-11-03T15:20:46.682Z,71.00
2018-11-03T15:23:13.590Z,71.64
2018-11-03T15:25:40.509Z,72.00
2018-11-03T15:28:07.437Z,71.20
2018-11-03T15:30:34.345Z,71.46
2018-11-03T15:33:01.274Z,72.30
2018-11-03T15:35:28.176Z,71.92
2018-11-03T15:37:55.093Z,71.82
2018-11-03T15:40:22.021Z,72.86
2018-11-03T15:42:48.924Z,73.23
2018-11-03T15:45:16.937Z,73.22
2018-11-03T15:47:44.423Z,73.82
2018-11-03T15:50:12.450Z,73.87
2018-11-03T15:52:39.484Z,73.76
2018-11-03T15:55:06.674Z,74.17
2018-11-03T15:57:33.630Z,74.70
2018-11-03T16:00:00.694Z,74.11
2018-11-03T16:02:28.088Z,75.32
2018-11-03T16:04:55.042Z,74.92
2018-11-03T16:07:21.969Z,74.99
2018-11-03T16:09:48.857Z,76.65
2018-11-03T16:12:15.869Z,76.49
2018-11-03T16:14:42.696Z,76.33
2018-11-03T16:17:09.608Z,76.94
2018-11-03T16:19:36.612Z,77.48
2018-11-03T16:22:03.496Z,78.32
2018-11-03T16:24:30.429Z,78.23
2018-11-03T16:26:57.384Z,78.64
2018-11-03T16:29:30.970Z,77.97
2018-11-03T16:31:57.959Z,78.08
2018-11-03T16:34:24.820Z,78.74
2018-11-03T16:36:51.769Z,78.99
2018-11-03T16:39:18.664Z,78.55
2018-11-03T16:41:45.665Z,78.32
2018-11-03T16:44:12.586Z,78.36
2018-11-03T16:46:39.522Z,78.13
2018-11-03T16:49:06.553Z,78.31
2018-11-03T16:51:33.475Z,77.63
2018-11-03T16:54:00.393Z,78.45
2018-11-03T16:56:27.300Z,78.47
2018-11-03T16:58:54.223Z,77.60
2018-11-03T17:01:21.148Z,78.19
2018-11-03T17:03:48.060Z,78.61
2018-11-03T17:06:14.991Z,79.36
2018-11-03T17:08:41.872Z,79.85
2018-11-03T17:11:08.809Z,79.56
2018-11-03T17:13:35.724Z,79.78
2018-11-03T17:16:02.637Z,80.05
2018-11-03T17:18:29.588Z,80.54
2018-11-03T17:20:56.463Z,81.17
2018-11-03T17:23:23.427Z,81.18
2018-11-03T17:25:50.341Z,82.02
2018-11-03T17:28:17.230Z,81.75
2018-11-03T17:30:44.152Z,82.08
2018-11-03T17:33:17.717Z,81.67
2018-11-03T17:35:44.651Z,81.89
2018-11-03T17:38:11.585Z,81.61
2018-11-03T17:40:38.563Z,82.47
2018-11-03T17:43:05.503Z,81.99
2018-11-03T17:45:32.433Z,82.61
2018-11-03T17:47:59.365Z,82.33
2018-11-03T17:50:26.308Z,81.57
2018-11-03T17:52:53.236Z,81.81
2018-11-03T17:55:20.161Z,83.04
2018-11-03T17:57:47.118Z,83.06
2018-11-03T18:00:15.323Z,82.75
2018-11-03T18:02:43.242Z,83.01
2018-11-03T18:05:10.133Z,83.06
2018-11-03T18:07:37.167Z,83.83
2018-11-03T18:10:05.037Z,83.08
2018-11-03T18:12:31.929Z,82.98
2018-11-03T18:14:58.832Z,83.04
2018-11-03T18:17:25.745Z,83.14
2018-11-03T18:19:52.725Z,83.14
2018-11-03T18:22:19.608Z,83.97
2018-11-03T18:24:46.549Z,84.23
2018-11-03T18:27:13.469Z,83.70
2018-11-03T18:29:40.369Z,83.55
2018-11-03T18:32:07.301Z,84.45
2018-11-03T18:34:34.269Z,84.08
2018-11-03T18:37:01.197Z,83.65
2018-11-03T18:39:28.129Z,84.31
2018-11-03T18:41:55.040Z,84.40
2018-11-03T18:44:21.945Z,84.95
2018-11-03T18:46:48.940Z,84.39
2018-11-03T18:49:15.801Z,84.02
2018-11-03T18:51:42.775Z,85.05
2018-11-03T18:54:09.684Z,85.32
2018-11-03T18:56:36.630Z,83.95
2018-11-03T18:59:03.814Z,84.33
2018-11-03T19:01:30.749Z,84.98
2018-11-03T19:03:57.711Z,84.64
2018-11-03T19:06:24.642Z,84.46
2018-11-03T19:08:51.607Z,84.79
2018-11-03T19:11:18.545Z,85.18
2018-11-03T19:13:45.473Z,85.46
2018-11-03T19:16:12.604Z,85.64
2018-11-03T19:18:41.896Z,84.99
2018-11-03T19:21:09.069Z,85.49
2018-11-03T19:23:36.086Z,85.33
2018-11-03T19:26:02.917Z,85.85
2018-11-03T19:28:29.832Z,85.35
2018-11-03T19:30:56.761Z,85.60
2018-11-03T19:33:23.741Z,85.19
2018-11-03T19:35:50.653Z,85.89
2018-11-03T19:38:17.977Z,84.97
2018-11-03T19:40:44.966Z,86.27
2018-11-03T19:43:11.965Z,86.31
2018-11-03T19:45:38.904Z,85.62
2018-11-03T19:48:05.824Z,86.43
2018-11-03T19:50:32.757Z,86.06
2018-11-03T19:52:59.640Z,85.99
2018-11-03T19:55:26.615Z,86.30
2018-11-03T19:57:53.508Z,85.35
2018-11-03T20:00:20.532Z,86.24
2018-11-03T20:02:47.560Z,85.55
2018-11-03T20:05:14.384Z,86.37
2018-11-03T20:07:42.377Z,86.45
2018-11-03T20:10:09.458Z,86.72
2018-11-03T20:12:36.301Z,85.93
2018-11-03T20:15:03.977Z,86.61
2018-11-03T20:17:30.895Z,87.07
2018-11-03T20:19:57.997Z,86.89
2018-11-03T20:22:24.956Z,87.40
2018-11-03T20:24:51.872Z,87.55
2018-11-03T20:27:18.814Z,86.75
2018-11-03T20:29:45.744Z,86.90
2018-11-03T20:32:19.564Z,87.50
2018-11-03T20:34:46.487Z,86.64
2018-11-03T20:37:13.374Z,87.94
2018-11-03T20:39:40.288Z,87.87
2018-11-03T20:42:07.165Z,87.48
2018-11-03T20:44:34.072Z,87.69
2018-11-03T20:47:00.985Z,87.95
2018-11-03T20:49:27.874Z,87.90
2018-11-03T20:51:54.772Z,87.71
2018-11-03T20:54:21.664Z,87.61
2018-11-03T20:56:48.566Z,86.72
2018-11-03T20:59:15.451Z,86.64
2018-11-03T21:01:42.424Z,87.88
2018-11-03T21:04:09.265Z,86.92
2018-11-03T21:06:36.178Z,87.61
2018-11-03T21:09:03.989Z,87.42
2018-11-03T21:11:30.890Z,87.73
2018-11-03T21:13:57.785Z,87.31
2018-11-03T21:16:24.745Z,88.81
2018-11-03T21:18:51.707Z,87.54
2018-11-03T21:21:18.594Z,88.09
2018-11-03T21:23:45.506Z,88.25
2018-11-03T21:26:12.417Z,87.58
2018-11-03T21:28:39.328Z,87.90
2018-11-03T21:31:06.238Z,88.85
2018-11-03T21:33:33.137Z,88.91
2018-11-03T21:36:00.038Z,89.39
2018-11-03T21:38:26.938Z,89.01
2018-11-03T21:40:54.599Z,89.67
2018-11-03T21:43:21.495Z,88.50
2018-11-03T21:45:48.413Z,88.33
2018-11-03T21:48:15.344Z,87.97
2018-11-03T21:50:42.242Z,88.40
2018-11-03T21:53:09.149Z,88.06
2018-11-03T21:55:36.044Z,89.62
2018-11-03T21:58:02.968Z,89.48
2018-11-03T22:00:29.877Z,89.82
2018-11-03T22:02:56.794Z,89.20
2018-11-03T22:05:23.733Z,89.81
2018-11-03T22:07:50.693Z,89.61
2018-11-03T22:10:17.608Z,90.10
2018-11-03T22:12:44.535Z,90.23
2018-11-03T22:15:11.462Z,89.93
2018-11-03T22:17:38.361Z,89.58
2018-11-03T22:20:06.224Z,89.11
2018-11-03T22:22:33.157Z,88.93
2018-11-03T22:25:07.848Z,88.83
2018-11-03T22:27:35.208Z,89.47
2018-11-03T22:30:02.120Z,88.67
2018-11-03T22:32:29.061Z,89.08
2018-11-03T22:34:55.952Z,89.17
2018-11-03T22:37:23.062Z,89.02
2018-11-03T22:39:49.960Z,89.05
2018-11-03T22:42:16.998Z,88.94
2018-11-03T22:44:43.872Z,88.73
2018-11-03T22:47:11.105Z,88.90
2018-11-03T22:49:43.288Z,89.00
2018-11-03T22:52:10.321Z,88.24
2018-11-03T22:54:37.984Z,88.67
2018-11-03T22:57:04.981Z,88.74
2018-11-03T22:59:31.917Z,87.68
2018-11-03T23:01:59.018Z,88.81
2018-11-03T23:04:25.981Z,88.27
2018-11-03T23:06:52.976Z,88.54
2018-11-03T23:09:19.984Z,88.60
2018-11-03T23:11:47.028Z,89.38
2018-11-03T23:14:13.933Z,88.87
2018-11-03T23:16:40.822Z,88.96
2018-11-03T23:19:07.833Z,89.15
2018-11-03T23:21:34.752Z,88.84
2018-11-03T23:24:01.676Z,88.54
2018-11-03T23:26:28.592Z,88.74
2018-11-03T23:28:55.501Z,89.08
2018-11-03T23:31:22.376Z,88.78
2018-11-03T23:33:49.568Z,88.66
2018-11-03T23:36:16.451Z,87.93
2018-11-03T23:38:43.344Z,88.21
2018-11-03T23:41:10.303Z,88.04
2018-11-03T23:43:37.216Z,87.98
2018-11-03T23:46:04.456Z,88.44
2018-11-03T23:48:31.345Z,89.21
2018-11-03T23:50:58.244Z,88.41
2018-11-03T23:53:25.210Z,88.01
2018-11-03T23:55:52.064Z,88.87
2018-11-03T23:58:18.963Z,88.12
